sensor_id;sensor_type;location;lat;lon;timestamp;P1;durP1;ratioP1;P2;durP2;ratioP2
77701;SDS011;66868;42.708;23.404;2023-03-08T00:01:18;15.17;;;8.47;;
77701;SDS011;66868;42.708;23.404;2023-03-08T00:03:46;12.45;;;8.63;;
77701;SDS011;66868;42.708;23.404;2023-03-08T00:06:14;13.95;;;8.38;;
77701;SDS011;66868;42.708;23.404;2023-03-08T00:08:41;15.05;;;9.40;;
77701;SDS011;66868;42.708;23.404;2023-03-08T00:11:07;20.00;;;9.40;;
77701;SDS011;66868;42.708;23.404;2023-03-08T00:13:34;14.20;;;9.55;;
77701;SDS011;66868;42.708;23.404;2023-03-08T00:16:00;15.68;;;9.27;;
77701;SDS011;66868;42.708;23.404;2023-03-08T00:18:26;14.02;;;9.15;;
77701;SDS011;66868;42.708;23.404;2023-03-08T00:21:02;16.38;;;8.82;;
77701;SDS011;66868;42.708;23.404;2023-03-08T00:23:30;24.52;;;9.65;;
77701;SDS011;66868;42.708;23.404;2023-03-08T00:25:56;17.48;;;9.15;;
77701;SDS011;66868;42.708;23.404;2023-03-08T00:28:22;13.50;;;8.47;;
77701;SDS011;66868;42.708;23.404;2023-03-08T00:30:54;14.18;;;7.93;;
77701;SDS011;66868;42.708;23.404;2023-03-08T00:33:21;12.98;;;7.68;;
77701;SDS011;66868;42.708;23.404;2023-03-08T00:38:44;13.82;;;9.65;;
77701;SDS011;66868;42.708;23.404;2023-03-08T00:41:11;18.03;;;9.40;;
77701;SDS011;66868;42.708;23.404;2023-03-08T00:43:36;14.35;;;9.20;;
77701;SDS011;66868;42.708;23.404;2023-03-08T00:46:02;11.95;;;7.90;;
77701;SDS011;66868;42.708;23.404;2023-03-08T00:48:29;18.03;;;8.87;;
77701;SDS011;66868;42.708;23.404;2023-03-08T00:50:54;9.32;;;7.45;;
77701;SDS011;66868;42.708;23.404;2023-03-08T00:53:20;10.00;;;7.30;;
77701;SDS011;66868;42.708;23.404;2023-03-08T00:55:57;8.80;;;6.73;;
77701;SDS011;66868;42.708;23.404;2023-03-08T00:58:24;9.27;;;6.05;;
77701;SDS011;66868;42.708;23.404;2023-03-08T01:00:58;8.00;;;6.53;;
77701;SDS011;66868;42.708;23.404;2023-03-08T01:03:24;10.82;;;6.22;;
77701;SDS011;66868;42.708;23.404;2023-03-08T01:06:06;11.50;;;7.07;;
77701;SDS011;66868;42.708;23.404;2023-03-08T01:08:41;15.73;;;7.80;;
77701;SDS011;66868;42.708;23.404;2023-03-08T01:11:13;11.40;;;8.03;;
77701;SDS011;66868;42.708;23.404;2023-03-08T01:13:44;10.00;;;7.03;;
77701;SDS011;66868;42.708;23.404;2023-03-08T01:16:16;9.20;;;7.40;;
77701;SDS011;66868;42.708;23.404;2023-03-08T01:18:49;13.10;;;8.30;;
77701;SDS011;66868;42.708;23.404;2023-03-08T01:21:14;10.30;;;7.90;;
77701;SDS011;66868;42.708;23.404;2023-03-08T01:23:40;13.68;;;9.05;;
77701;SDS011;66868;42.708;23.404;2023-03-08T01:26:13;12.90;;;8.77;;
77701;SDS011;66868;42.708;23.404;2023-03-08T01:28:40;10.55;;;8.05;;
77701;SDS011;66868;42.708;23.404;2023-03-08T01:33:33;12.53;;;7.93;;
77701;SDS011;66868;42.708;23.404;2023-03-08T01:35:58;13.60;;;8.77;;
77701;SDS011;66868;42.708;23.404;2023-03-08T01:38:27;13.67;;;8.50;;
77701;SDS011;66868;42.708;23.404;2023-03-08T01:40:56;9.27;;;7.60;;
77701;SDS011;66868;42.708;23.404;2023-03-08T01:46:04;13.03;;;9.10;;
77701;SDS011;66868;42.708;23.404;2023-03-08T01:48:31;15.23;;;9.60;;
77701;SDS011;66868;42.708;23.404;2023-03-08T01:51:01;14.13;;;9.10;;
77701;SDS011;66868;42.708;23.404;2023-03-08T01:53:28;14.23;;;8.80;;
77701;SDS011;66868;42.708;23.404;2023-03-08T01:55:54;14.37;;;8.33;;
77701;SDS011;66868;42.708;23.404;2023-03-08T01:58:20;15.20;;;9.03;;
77701;SDS011;66868;42.708;23.404;2023-03-08T02:00:46;8.63;;;6.97;;
77701;SDS011;66868;42.708;23.404;2023-03-08T02:03:11;10.07;;;6.80;;
77701;SDS011;66868;42.708;23.404;2023-03-08T02:05:40;12.47;;;7.27;;
77701;SDS011;66868;42.708;23.404;2023-03-08T02:08:07;9.50;;;7.83;;
77701;SDS011;66868;42.708;23.404;2023-03-08T02:10:32;16.87;;;7.53;;
77701;SDS011;66868;42.708;23.404;2023-03-08T02:12:59;11.73;;;7.70;;
77701;SDS011;66868;42.708;23.404;2023-03-08T02:15:25;13.50;;;7.67;;
77701;SDS011;66868;42.708;23.404;2023-03-08T02:17:50;14.47;;;7.93;;
77701;SDS011;66868;42.708;23.404;2023-03-08T02:20:27;10.33;;;7.53;;
77701;SDS011;66868;42.708;23.404;2023-03-08T02:22:55;13.73;;;8.47;;
77701;SDS011;66868;42.708;23.404;2023-03-08T02:25:31;11.80;;;7.67;;
77701;SDS011;66868;42.708;23.404;2023-03-08T02:27:56;13.17;;;7.80;;
77701;SDS011;66868;42.708;23.404;2023-03-08T02:30:27;8.70;;;6.63;;
77701;SDS011;66868;42.708;23.404;2023-03-08T02:32:55;14.23;;;6.90;;
77701;SDS011;66868;42.708;23.404;2023-03-08T02:35:20;7.93;;;7.07;;
77701;SDS011;66868;42.708;23.404;2023-03-08T02:37:46;7.40;;;6.03;;
77701;SDS011;66868;42.708;23.404;2023-03-08T02:40:12;7.70;;;6.07;;
77701;SDS011;66868;42.708;23.404;2023-03-08T02:42:37;9.70;;;6.40;;
77701;SDS011;66868;42.708;23.404;2023-03-08T02:45:03;10.73;;;7.83;;
77701;SDS011;66868;42.708;23.404;2023-03-08T02:47:29;10.43;;;8.20;;
77701;SDS011;66868;42.708;23.404;2023-03-08T02:49:54;11.93;;;8.07;;
77701;SDS011;66868;42.708;23.404;2023-03-08T02:52:20;12.47;;;8.93;;
77701;SDS011;66868;42.708;23.404;2023-03-08T02:54:45;11.83;;;7.97;;
77701;SDS011;66868;42.708;23.404;2023-03-08T02:57:10;11.13;;;6.73;;
77701;SDS011;66868;42.708;23.404;2023-03-08T02:59:36;10.03;;;6.20;;
77701;SDS011;66868;42.708;23.404;2023-03-08T03:02:01;12.60;;;7.20;;
77701;SDS011;66868;42.708;23.404;2023-03-08T03:04:31;14.03;;;6.37;;
77701;SDS011;66868;42.708;23.404;2023-03-08T03:06:57;11.13;;;6.20;;
77701;SDS011;66868;42.708;23.404;2023-03-08T03:09:23;11.60;;;6.63;;
77701;SDS011;66868;42.708;23.404;2023-03-08T03:11:49;11.97;;;7.97;;
77701;SDS011;66868;42.708;23.404;2023-03-08T03:14:14;10.00;;;7.97;;
77701;SDS011;66868;42.708;23.404;2023-03-08T03:16:40;12.00;;;7.83;;
77701;SDS011;66868;42.708;23.404;2023-03-08T03:19:05;15.73;;;7.90;;
77701;SDS011;66868;42.708;23.404;2023-03-08T03:21:31;17.93;;;8.80;;
77701;SDS011;66868;42.708;23.404;2023-03-08T03:23:57;11.93;;;7.53;;
77701;SDS011;66868;42.708;23.404;2023-03-08T03:26:23;14.13;;;7.50;;
77701;SDS011;66868;42.708;23.404;2023-03-08T03:28:48;10.63;;;7.57;;
77701;SDS011;66868;42.708;23.404;2023-03-08T03:31:17;10.83;;;7.87;;
77701;SDS011;66868;42.708;23.404;2023-03-08T03:33:45;10.07;;;7.60;;
77701;SDS011;66868;42.708;23.404;2023-03-08T03:36:12;9.50;;;7.33;;
77701;SDS011;66868;42.708;23.404;2023-03-08T03:38:40;17.20;;;8.93;;
77701;SDS011;66868;42.708;23.404;2023-03-08T03:41:07;13.23;;;8.37;;
77701;SDS011;66868;42.708;23.404;2023-03-08T03:43:34;12.03;;;8.27;;
77701;SDS011;66868;42.708;23.404;2023-03-08T03:46:01;13.23;;;7.17;;
77701;SDS011;66868;42.708;23.404;2023-03-08T03:48:29;6.50;;;5.90;;
77701;SDS011;66868;42.708;23.404;2023-03-08T03:50:55;11.33;;;7.33;;
77701;SDS011;66868;42.708;23.404;2023-03-08T03:53:22;7.70;;;6.50;;
77701;SDS011;66868;42.708;23.404;2023-03-08T03:55:48;13.07;;;7.03;;
77701;SDS011;66868;42.708;23.404;2023-03-08T03:58:14;12.87;;;7.13;;
77701;SDS011;66868;42.708;23.404;2023-03-08T04:00:39;10.63;;;7.87;;
77701;SDS011;66868;42.708;23.404;2023-03-08T04:03:05;87.20;;;31.70;;
77701;SDS011;66868;42.708;23.404;2023-03-08T04:05:30;30.37;;;15.17;;
77701;SDS011;66868;42.708;23.404;2023-03-08T04:07:55;19.80;;;10.77;;
77701;SDS011;66868;42.708;23.404;2023-03-08T04:10:21;12.97;;;6.83;;
77701;SDS011;66868;42.708;23.404;2023-03-08T04:12:47;12.37;;;7.23;;
77701;SDS011;66868;42.708;23.404;2023-03-08T04:15:13;13.53;;;8.30;;
77701;SDS011;66868;42.708;23.404;2023-03-08T04:17:39;39.23;;;16.83;;
77701;SDS011;66868;42.708;23.404;2023-03-08T04:20:04;47.33;;;19.93;;
77701;SDS011;66868;42.708;23.404;2023-03-08T04:22:31;35.90;;;16.53;;
77701;SDS011;66868;42.708;23.404;2023-03-08T04:24:56;32.47;;;14.23;;
77701;SDS011;66868;42.708;23.404;2023-03-08T04:27:21;32.27;;;15.30;;
77701;SDS011;66868;42.708;23.404;2023-03-08T04:29:47;21.37;;;11.47;;
77701;SDS011;66868;42.708;23.404;2023-03-08T04:32:12;11.00;;;8.00;;
77701;SDS011;66868;42.708;23.404;2023-03-08T04:34:38;10.23;;;7.23;;
77701;SDS011;66868;42.708;23.404;2023-03-08T04:37:03;11.37;;;7.23;;
77701;SDS011;66868;42.708;23.404;2023-03-08T04:39:28;12.67;;;7.17;;
77701;SDS011;66868;42.708;23.404;2023-03-08T04:41:54;8.43;;;6.50;;
77701;SDS011;66868;42.708;23.404;2023-03-08T04:44:19;11.67;;;7.40;;
77701;SDS011;66868;42.708;23.404;2023-03-08T04:46:45;16.07;;;7.13;;
77701;SDS011;66868;42.708;23.404;2023-03-08T04:49:10;10.37;;;7.83;;
77701;SDS011;66868;42.708;23.404;2023-03-08T04:51:35;10.93;;;6.83;;
77701;SDS011;66868;42.708;23.404;2023-03-08T04:54:01;11.20;;;7.27;;
77701;SDS011;66868;42.708;23.404;2023-03-08T04:56:28;12.27;;;6.60;;
77701;SDS011;66868;42.708;23.404;2023-03-08T04:58:54;7.00;;;6.27;;
77701;SDS011;66868;42.708;23.404;2023-03-08T05:01:20;8.53;;;6.67;;
77701;SDS011;66868;42.708;23.404;2023-03-08T05:03:47;11.83;;;7.20;;
77701;SDS011;66868;42.708;23.404;2023-03-08T05:06:15;11.87;;;6.50;;
77701;SDS011;66868;42.708;23.404;2023-03-08T05:08:42;8.30;;;7.10;;
77701;SDS011;66868;42.708;23.404;2023-03-08T05:11:07;9.63;;;6.90;;
77701;SDS011;66868;42.708;23.404;2023-03-08T05:13:34;12.37;;;6.73;;
77701;SDS011;66868;42.708;23.404;2023-03-08T05:16:03;6.90;;;5.87;;
77701;SDS011;66868;42.708;23.404;2023-03-08T05:18:30;7.93;;;6.07;;
77701;SDS011;66868;42.708;23.404;2023-03-08T05:20:56;12.90;;;6.60;;
77701;SDS011;66868;42.708;23.404;2023-03-08T05:23:23;11.93;;;6.13;;
77701;SDS011;66868;42.708;23.404;2023-03-08T05:25:50;13.20;;;6.37;;
77701;SDS011;66868;42.708;23.404;2023-03-08T05:28:17;14.30;;;8.23;;
77701;SDS011;66868;42.708;23.404;2023-03-08T05:30:43;10.50;;;6.57;;
77701;SDS011;66868;42.708;23.404;2023-03-08T05:33:08;18.60;;;7.43;;
77701;SDS011;66868;42.708;23.404;2023-03-08T05:35:34;12.83;;;8.03;;
77701;SDS011;66868;42.708;23.404;2023-03-08T05:37:59;13.60;;;6.63;;
77701;SDS011;66868;42.708;23.404;2023-03-08T05:40:24;14.07;;;7.60;;
77701;SDS011;66868;42.708;23.404;2023-03-08T05:42:50;9.93;;;7.27;;
77701;SDS011;66868;42.708;23.404;2023-03-08T05:45:15;9.97;;;7.27;;
77701;SDS011;66868;42.708;23.404;2023-03-08T05:47:40;21.90;;;7.10;;
77701;SDS011;66868;42.708;23.404;2023-03-08T05:50:06;9.40;;;7.37;;
77701;SDS011;66868;42.708;23.404;2023-03-08T05:52:32;9.17;;;7.27;;
77701;SDS011;66868;42.708;23.404;2023-03-08T05:54:57;15.60;;;7.40;;
77701;SDS011;66868;42.708;23.404;2023-03-08T05:57:23;13.17;;;6.40;;
77701;SDS011;66868;42.708;23.404;2023-03-08T05:59:48;10.80;;;6.70;;
77701;SDS011;66868;42.708;23.404;2023-03-08T06:02:13;20.33;;;7.70;;
77701;SDS011;66868;42.708;23.404;2023-03-08T06:04:39;10.50;;;7.70;;
77701;SDS011;66868;42.708;23.404;2023-03-08T06:07:04;11.70;;;7.33;;
77701;SDS011;66868;42.708;23.404;2023-03-08T06:09:30;19.30;;;7.87;;
77701;SDS011;66868;42.708;23.404;2023-03-08T06:11:55;14.80;;;7.27;;
77701;SDS011;66868;42.708;23.404;2023-03-08T06:14:20;12.50;;;8.50;;
77701;SDS011;66868;42.708;23.404;2023-03-08T06:16:46;20.20;;;8.20;;
77701;SDS011;66868;42.708;23.404;2023-03-08T06:19:13;16.77;;;9.30;;
77701;SDS011;66868;42.708;23.404;2023-03-08T06:21:39;13.20;;;9.50;;
77701;SDS011;66868;42.708;23.404;2023-03-08T06:24:04;19.17;;;9.87;;
77701;SDS011;66868;42.708;23.404;2023-03-08T06:26:30;15.37;;;9.07;;
77701;SDS011;66868;42.708;23.404;2023-03-08T06:28:55;20.57;;;10.30;;
77701;SDS011;66868;42.708;23.404;2023-03-08T06:31:21;19.97;;;9.83;;
77701;SDS011;66868;42.708;23.404;2023-03-08T06:33:46;19.13;;;9.70;;
77701;SDS011;66868;42.708;23.404;2023-03-08T06:36:16;16.70;;;8.88;;
77701;SDS011;66868;42.708;23.404;2023-03-08T06:38:42;12.57;;;6.70;;
77701;SDS011;66868;42.708;23.404;2023-03-08T06:41:08;10.77;;;5.77;;
77701;SDS011;66868;42.708;23.404;2023-03-08T06:43:35;7.07;;;5.38;;
77701;SDS011;66868;42.708;23.404;2023-03-08T06:46:08;9.77;;;5.78;;
77701;SDS011;66868;42.708;23.404;2023-03-08T06:48:36;8.68;;;5.45;;
77701;SDS011;66868;42.708;23.404;2023-03-08T06:51:02;13.05;;;5.65;;
77701;SDS011;66868;42.708;23.404;2023-03-08T06:53:28;11.68;;;5.65;;
77701;SDS011;66868;42.708;23.404;2023-03-08T06:55:53;8.73;;;4.88;;
77701;SDS011;66868;42.708;23.404;2023-03-08T06:58:19;9.38;;;4.88;;
77701;SDS011;66868;42.708;23.404;2023-03-08T07:00:44;7.70;;;5.85;;
77701;SDS011;66868;42.708;23.404;2023-03-08T07:03:13;10.75;;;5.78;;
77701;SDS011;66868;42.708;23.404;2023-03-08T07:05:39;7.72;;;6.15;;
77701;SDS011;66868;42.708;23.404;2023-03-08T07:08:05;10.43;;;6.18;;
77701;SDS011;66868;42.708;23.404;2023-03-08T07:10:31;14.38;;;6.13;;
77701;SDS011;66868;42.708;23.404;2023-03-08T07:12:57;11.13;;;6.47;;
77701;SDS011;66868;42.708;23.404;2023-03-08T07:15:23;9.18;;;5.80;;
77701;SDS011;66868;42.708;23.404;2023-03-08T07:17:55;7.05;;;5.78;;
77701;SDS011;66868;42.708;23.404;2023-03-08T07:20:23;10.40;;;6.22;;
77701;SDS011;66868;42.708;23.404;2023-03-08T07:22:49;12.38;;;5.43;;
77701;SDS011;66868;42.708;23.404;2023-03-08T07:25:16;7.78;;;5.85;;
77701;SDS011;66868;42.708;23.404;2023-03-08T07:27:43;7.28;;;5.57;;
77701;SDS011;66868;42.708;23.404;2023-03-08T07:30:09;8.20;;;5.93;;
77701;SDS011;66868;42.708;23.404;2023-03-08T07:32:40;7.57;;;5.30;;
77701;SDS011;66868;42.708;23.404;2023-03-08T07:35:07;11.32;;;5.85;;
77701;SDS011;66868;42.708;23.404;2023-03-08T07:37:34;9.80;;;5.82;;
77701;SDS011;66868;42.708;23.404;2023-03-08T07:39:59;10.13;;;6.30;;
77701;SDS011;66868;42.708;23.404;2023-03-08T07:42:25;11.27;;;6.80;;
77701;SDS011;66868;42.708;23.404;2023-03-08T07:44:51;10.70;;;6.57;;
77701;SDS011;66868;42.708;23.404;2023-03-08T07:47:17;9.80;;;6.32;;
77701;SDS011;66868;42.708;23.404;2023-03-08T07:49:42;10.07;;;7.35;;
77701;SDS011;66868;42.708;23.404;2023-03-08T07:52:08;11.23;;;8.07;;
77701;SDS011;66868;42.708;23.404;2023-03-08T07:54:33;16.38;;;7.78;;
77701;SDS011;66868;42.708;23.404;2023-03-08T07:56:59;17.75;;;7.72;;
77701;SDS011;66868;42.708;23.404;2023-03-08T07:59:24;16.45;;;7.45;;
77701;SDS011;66868;42.708;23.404;2023-03-08T08:01:49;14.95;;;6.65;;
77701;SDS011;66868;42.708;23.404;2023-03-08T08:04:15;16.25;;;7.28;;
77701;SDS011;66868;42.708;23.404;2023-03-08T08:06:40;18.73;;;6.97;;
77701;SDS011;66868;42.708;23.404;2023-03-08T08:09:07;13.90;;;7.13;;
77701;SDS011;66868;42.708;23.404;2023-03-08T08:11:33;13.77;;;7.40;;
77701;SDS011;66868;42.708;23.404;2023-03-08T08:13:59;10.63;;;5.78;;
77701;SDS011;66868;42.708;23.404;2023-03-08T08:16:25;10.10;;;6.25;;
77701;SDS011;66868;42.708;23.404;2023-03-08T08:18:51;13.93;;;6.93;;
77701;SDS011;66868;42.708;23.404;2023-03-08T08:21:19;14.75;;;5.88;;
77701;SDS011;66868;42.708;23.404;2023-03-08T08:23:45;8.30;;;5.70;;
77701;SDS011;66868;42.708;23.404;2023-03-08T08:26:20;11.20;;;6.07;;
77701;SDS011;66868;42.708;23.404;2023-03-08T08:28:47;11.52;;;5.75;;
77701;SDS011;66868;42.708;23.404;2023-03-08T08:31:15;10.60;;;5.50;;
77701;SDS011;66868;42.708;23.404;2023-03-08T08:33:42;8.98;;;5.10;;
77701;SDS011;66868;42.708;23.404;2023-03-08T08:36:08;10.15;;;5.43;;
77701;SDS011;66868;42.708;23.404;2023-03-08T08:38:36;13.50;;;6.22;;
77701;SDS011;66868;42.708;23.404;2023-03-08T08:41:02;11.20;;;5.55;;
77701;SDS011;66868;42.708;23.404;2023-03-08T08:43:30;10.27;;;5.93;;
77701;SDS011;66868;42.708;23.404;2023-03-08T08:46:17;9.07;;;5.85;;
77701;SDS011;66868;42.708;23.404;2023-03-08T08:48:59;10.10;;;5.97;;
77701;SDS011;66868;42.708;23.404;2023-03-08T08:51:25;6.30;;;5.05;;
77701;SDS011;66868;42.708;23.404;2023-03-08T08:53:53;15.07;;;5.72;;
77701;SDS011;66868;42.708;23.404;2023-03-08T08:56:23;12.73;;;5.05;;
77701;SDS011;66868;42.708;23.404;2023-03-08T08:58:53;8.27;;;4.53;;
77701;SDS011;66868;42.708;23.404;2023-03-08T09:01:23;7.05;;;4.88;;
77701;SDS011;66868;42.708;23.404;2023-03-08T09:03:57;9.05;;;5.43;;
77701;SDS011;66868;42.708;23.404;2023-03-08T09:06:46;12.98;;;5.18;;
77701;SDS011;66868;42.708;23.404;2023-03-08T09:09:18;14.88;;;5.93;;
77701;SDS011;66868;42.708;23.404;2023-03-08T09:11:49;14.48;;;6.28;;
77701;SDS011;66868;42.708;23.404;2023-03-08T09:14:17;15.05;;;6.40;;
77701;SDS011;66868;42.708;23.404;2023-03-08T09:16:42;8.05;;;5.50;;
77701;SDS011;66868;42.708;23.404;2023-03-08T09:19:08;14.57;;;6.03;;
77701;SDS011;66868;42.708;23.404;2023-03-08T09:21:33;9.48;;;6.00;;
77701;SDS011;66868;42.708;23.404;2023-03-08T09:24:00;12.15;;;6.05;;
77701;SDS011;66868;42.708;23.404;2023-03-08T09:26:28;15.07;;;6.13;;
77701;SDS011;66868;42.708;23.404;2023-03-08T09:28:54;7.40;;;5.57;;
77701;SDS011;66868;42.708;23.404;2023-03-08T09:31:19;13.23;;;5.95;;
77701;SDS011;66868;42.708;23.404;2023-03-08T09:33:48;8.57;;;5.50;;
77701;SDS011;66868;42.708;23.404;2023-03-08T09:36:18;9.18;;;5.65;;
77701;SDS011;66868;42.708;23.404;2023-03-08T09:38:47;11.95;;;5.53;;
77701;SDS011;66868;42.708;23.404;2023-03-08T09:43:44;14.50;;;5.30;;
77701;SDS011;66868;42.708;23.404;2023-03-08T09:46:29;11.60;;;6.50;;
77701;SDS011;66868;42.708;23.404;2023-03-08T09:49:00;6.03;;;5.30;;
77701;SDS011;66868;42.708;23.404;2023-03-08T09:51:30;10.52;;;5.50;;
77701;SDS011;66868;42.708;23.404;2023-03-08T09:54:08;13.35;;;6.15;;
77701;SDS011;66868;42.708;23.404;2023-03-08T09:56:40;11.70;;;5.60;;
77701;SDS011;66868;42.708;23.404;2023-03-08T09:59:15;11.05;;;6.72;;
77701;SDS011;66868;42.708;23.404;2023-03-08T10:01:54;8.13;;;5.78;;
77701;SDS011;66868;42.708;23.404;2023-03-08T10:15:52;11.70;;;4.97;;
77701;SDS011;66868;42.708;23.404;2023-03-08T10:20:53;12.27;;;5.00;;
77701;SDS011;66868;42.708;23.404;2023-03-08T10:23:21;11.32;;;4.85;;
77701;SDS011;66868;42.708;23.404;2023-03-08T10:25:48;10.35;;;5.32;;
77701;SDS011;66868;42.708;23.404;2023-03-08T10:28:18;8.18;;;5.15;;
77701;SDS011;66868;42.708;23.404;2023-03-08T10:33:15;8.68;;;4.85;;
77701;SDS011;66868;42.708;23.404;2023-03-08T10:35:53;8.32;;;4.72;;
77701;SDS011;66868;42.708;23.404;2023-03-08T10:38:18;13.23;;;5.10;;
77701;SDS011;66868;42.708;23.404;2023-03-08T10:40:44;10.75;;;5.45;;
77701;SDS011;66868;42.708;23.404;2023-03-08T10:43:44;11.48;;;4.63;;
77701;SDS011;66868;42.708;23.404;2023-03-08T10:46:12;6.95;;;4.82;;
77701;SDS011;66868;42.708;23.404;2023-03-08T10:48:41;6.22;;;4.57;;
77701;SDS011;66868;42.708;23.404;2023-03-08T10:51:14;11.95;;;4.90;;
77701;SDS011;66868;42.708;23.404;2023-03-08T10:53:51;11.25;;;5.50;;
77701;SDS011;66868;42.708;23.404;2023-03-08T10:56:42;15.38;;;5.07;;
77701;SDS011;66868;42.708;23.404;2023-03-08T10:59:19;5.70;;;4.97;;
77701;SDS011;66868;42.708;23.404;2023-03-08T11:01:56;11.80;;;5.07;;
77701;SDS011;66868;42.708;23.404;2023-03-08T11:04:25;10.30;;;6.25;;
77701;SDS011;66868;42.708;23.404;2023-03-08T11:06:52;10.60;;;5.57;;
77701;SDS011;66868;42.708;23.404;2023-03-08T11:09:38;7.43;;;5.40;;
77701;SDS011;66868;42.708;23.404;2023-03-08T11:12:03;9.10;;;5.82;;
77701;SDS011;66868;42.708;23.404;2023-03-08T11:14:28;12.75;;;5.82;;
77701;SDS011;66868;42.708;23.404;2023-03-08T11:20:16;12.00;;;5.60;;
77701;SDS011;66868;42.708;23.404;2023-03-08T11:23:03;7.63;;;5.55;;
77701;SDS011;66868;42.708;23.404;2023-03-08T11:25:51;7.53;;;5.72;;
77701;SDS011;66868;42.708;23.404;2023-03-08T11:31:51;8.68;;;4.50;;
77701;SDS011;66868;42.708;23.404;2023-03-08T11:34:54;12.65;;;4.68;;
77701;SDS011;66868;42.708;23.404;2023-03-08T11:37:37;6.32;;;4.10;;
77701;SDS011;66868;42.708;23.404;2023-03-08T11:43:14;9.10;;;4.45;;
77701;SDS011;66868;42.708;23.404;2023-03-08T11:45:56;7.05;;;4.20;;
77701;SDS011;66868;42.708;23.404;2023-03-08T11:56:53;3.90;;;3.22;;
77701;SDS011;66868;42.708;23.404;2023-03-08T11:59:25;1.58;;;1.48;;
77701;SDS011;66868;42.708;23.404;2023-03-08T12:07:33;2.40;;;1.60;;
77701;SDS011;66868;42.708;23.404;2023-03-08T12:10:21;2.42;;;2.28;;
77701;SDS011;66868;42.708;23.404;2023-03-08T12:15:36;2.88;;;2.08;;
77701;SDS011;66868;42.708;23.404;2023-03-08T12:21:13;4.53;;;1.60;;
77701;SDS011;66868;42.708;23.404;2023-03-08T12:26:53;3.55;;;1.90;;
77701;SDS011;66868;42.708;23.404;2023-03-08T12:29:27;1.90;;;1.40;;
77701;SDS011;66868;42.708;23.404;2023-03-08T12:32:03;4.00;;;1.45;;
77701;SDS011;66868;42.708;23.404;2023-03-08T12:34:59;4.55;;;1.50;;
77701;SDS011;66868;42.708;23.404;2023-03-08T12:37:25;2.80;;;1.55;;
77701;SDS011;66868;42.708;23.404;2023-03-08T12:40:00;6.25;;;1.60;;
77701;SDS011;66868;42.708;23.404;2023-03-08T12:42:50;2.05;;;1.40;;
77701;SDS011;66868;42.708;23.404;2023-03-08T12:48:00;12.77;;;1.60;;
77701;SDS011;66868;42.708;23.404;2023-03-08T12:50:44;2.58;;;1.50;;
77701;SDS011;66868;42.708;23.404;2023-03-08T12:58:33;2.30;;;1.90;;
77701;SDS011;66868;42.708;23.404;2023-03-08T13:01:04;1.20;;;1.20;;
77701;SDS011;66868;42.708;23.404;2023-03-08T13:08:54;1.55;;;1.30;;
77701;SDS011;66868;42.708;23.404;2023-03-08T13:11:40;3.13;;;1.27;;
77701;SDS011;66868;42.708;23.404;2023-03-08T13:14:26;4.63;;;1.40;;
77701;SDS011;66868;42.708;23.404;2023-03-08T13:17:01;2.38;;;1.25;;
77701;SDS011;66868;42.708;23.404;2023-03-08T13:19:47;4.57;;;1.65;;
77701;SDS011;66868;42.708;23.404;2023-03-08T13:22:22;6.53;;;1.30;;
77701;SDS011;66868;42.708;23.404;2023-03-08T13:27:20;1.02;;;1.02;;
77701;SDS011;66868;42.708;23.404;2023-03-08T13:30:00;2.72;;;1.80;;
77701;SDS011;66868;42.708;23.404;2023-03-08T13:32:50;4.38;;;1.63;;
77701;SDS011;66868;42.708;23.404;2023-03-08T13:35:16;1.65;;;1.08;;
77701;SDS011;66868;42.708;23.404;2023-03-08T13:37:42;1.27;;;1.17;;
77701;SDS011;66868;42.708;23.404;2023-03-08T13:40:17;1.98;;;1.63;;
77701;SDS011;66868;42.708;23.404;2023-03-08T13:45:39;1.75;;;1.65;;
77701;SDS011;66868;42.708;23.404;2023-03-08T13:48:06;2.75;;;1.08;;
77701;SDS011;66868;42.708;23.404;2023-03-08T13:50:36;5.35;;;1.50;;
77701;SDS011;66868;42.708;23.404;2023-03-08T13:53:07;1.27;;;1.25;;
77701;SDS011;66868;42.708;23.404;2023-03-08T13:55:41;1.83;;;1.00;;
77701;SDS011;66868;42.708;23.404;2023-03-08T14:03:28;2.05;;;1.20;;
77701;SDS011;66868;42.708;23.404;2023-03-08T14:05:56;7.40;;;1.25;;
77701;SDS011;66868;42.708;23.404;2023-03-08T14:08:25;1.20;;;1.10;;
77701;SDS011;66868;42.708;23.404;2023-03-08T14:11:01;4.70;;;1.40;;
77701;SDS011;66868;42.708;23.404;2023-03-08T14:13:31;4.88;;;1.27;;
77701;SDS011;66868;42.708;23.404;2023-03-08T14:15:59;1.95;;;1.23;;
77701;SDS011;66868;42.708;23.404;2023-03-08T14:18:28;1.52;;;1.10;;
77701;SDS011;66868;42.708;23.404;2023-03-08T14:21:03;1.58;;;1.10;;
77701;SDS011;66868;42.708;23.404;2023-03-08T14:23:29;1.50;;;0.98;;
77701;SDS011;66868;42.708;23.404;2023-03-08T14:26:00;0.90;;;0.90;;
77701;SDS011;66868;42.708;23.404;2023-03-08T14:28:32;7.65;;;1.55;;
77701;SDS011;66868;42.708;23.404;2023-03-08T14:30:59;1.65;;;1.30;;
77701;SDS011;66868;42.708;23.404;2023-03-08T14:33:25;1.77;;;1.23;;
77701;SDS011;66868;42.708;23.404;2023-03-08T14:35:53;5.65;;;1.60;;
77701;SDS011;66868;42.708;23.404;2023-03-08T14:38:28;5.07;;;1.63;;
77701;SDS011;66868;42.708;23.404;2023-03-08T14:41:02;5.43;;;1.77;;
77701;SDS011;66868;42.708;23.404;2023-03-08T14:43:30;3.90;;;1.65;;
77701;SDS011;66868;42.708;23.404;2023-03-08T14:45:59;6.78;;;1.58;;
77701;SDS011;66868;42.708;23.404;2023-03-08T14:53:22;3.42;;;1.92;;
77701;SDS011;66868;42.708;23.404;2023-03-08T14:55:50;1.33;;;1.20;;
77701;SDS011;66868;42.708;23.404;2023-03-08T14:58:16;1.33;;;1.20;;
77701;SDS011;66868;42.708;23.404;2023-03-08T15:00:50;5.32;;;1.77;;
77701;SDS011;66868;42.708;23.404;2023-03-08T15:03:17;2.80;;;1.98;;
77701;SDS011;66868;42.708;23.404;2023-03-08T15:05:43;2.25;;;1.90;;
77701;SDS011;66868;42.708;23.404;2023-03-08T15:08:10;1.58;;;1.48;;
77701;SDS011;66868;42.708;23.404;2023-03-08T15:10:37;8.38;;;1.75;;
77701;SDS011;66868;42.708;23.404;2023-03-08T15:13:05;4.72;;;1.80;;
77701;SDS011;66868;42.708;23.404;2023-03-08T15:15:35;2.45;;;1.52;;
77701;SDS011;66868;42.708;23.404;2023-03-08T15:18:01;3.60;;;1.50;;
77701;SDS011;66868;42.708;23.404;2023-03-08T15:20:26;1.98;;;1.80;;
77701;SDS011;66868;42.708;23.404;2023-03-08T15:22:53;2.47;;;1.80;;
77701;SDS011;66868;42.708;23.404;2023-03-08T15:25:34;10.05;;;2.28;;
77701;SDS011;66868;42.708;23.404;2023-03-08T15:28:02;3.33;;;2.13;;
77701;SDS011;66868;42.708;23.404;2023-03-08T15:30:29;2.05;;;1.88;;
77701;SDS011;66868;42.708;23.404;2023-03-08T15:32:55;4.50;;;2.05;;
77701;SDS011;66868;42.708;23.404;2023-03-08T15:35:21;3.38;;;1.70;;
77701;SDS011;66868;42.708;23.404;2023-03-08T15:37:47;3.65;;;1.73;;
77701;SDS011;66868;42.708;23.404;2023-03-08T15:40:15;2.50;;;2.30;;
77701;SDS011;66868;42.708;23.404;2023-03-08T15:42:45;6.20;;;1.90;;
77701;SDS011;66868;42.708;23.404;2023-03-08T15:45:10;1.83;;;1.73;;
77701;SDS011;66868;42.708;23.404;2023-03-08T15:47:37;2.67;;;2.50;;
77701;SDS011;66868;42.708;23.404;2023-03-08T15:50:03;2.13;;;1.77;;
77701;SDS011;66868;42.708;23.404;2023-03-08T15:52:30;1.90;;;1.80;;
77701;SDS011;66868;42.708;23.404;2023-03-08T15:54:55;6.15;;;1.83;;
77701;SDS011;66868;42.708;23.404;2023-03-08T15:57:21;3.90;;;2.30;;
77701;SDS011;66868;42.708;23.404;2023-03-08T15:59:46;2.72;;;2.50;;
77701;SDS011;66868;42.708;23.404;2023-03-08T16:02:16;3.97;;;1.70;;
77701;SDS011;66868;42.708;23.404;2023-03-08T16:04:43;1.40;;;1.40;;